createdAt,value
2022-09-22T00:01:18.139Z,14.57
2022-09-22T00:03:49.588Z,14.55
2022-09-22T00:06:19.127Z,14.53
2022-09-22T00:08:49.587Z,14.52
2022-09-22T00:11:20.210Z,14.51
2022-09-22T00:13:51.103Z,14.50
2022-09-22T00:16:20.831Z,14.49
2022-09-22T00:18:50.451Z,14.47
2022-09-22T00:21:19.795Z,14.45
2022-09-22T00:23:48.230Z,14.44
2022-09-22T00:26:21.669Z,14.44
2022-09-22T00:28:51.228Z,14.42
2022-09-22T00:31:21.299Z,14.41
2022-09-22T00:33:51.510Z,14.40
2022-09-22T00:36:21.565Z,14.39
2022-09-22T00:38:50.675Z,14.37
2022-09-22T00:41:20.771Z,14.36
2022-09-22T00:43:50.435Z,14.35
2022-09-22T00:46:21.673Z,14.33
2022-09-22T00:48:56.328Z,14.32
2022-09-22T00:51:28.534Z,14.32
2022-09-22T00:53:58.600Z,14.31
2022-09-22T00:56:29.763Z,14.29
2022-09-22T00:59:01.679Z,14.27
2022-09-22T01:01:29.445Z,14.27
2022-09-22T01:03:58.899Z,14.26
2022-09-22T01:06:29.792Z,14.24
2022-09-22T01:08:58.417Z,14.22
2022-09-22T01:11:27.921Z,14.15
2022-09-22T01:14:05.252Z,14.20
2022-09-22T01:16:46.148Z,14.19
2022-09-22T01:19:39.982Z,14.18
2022-09-22T01:22:25.183Z,14.15
2022-09-22T01:25:15.164Z,14.15
2022-09-22T01:28:22.823Z,14.11
2022-09-22T01:30:58.692Z,14.11
2022-09-22T01:33:37.086Z,14.09
2022-09-22T01:36:25.554Z,14.07
2022-09-22T01:39:02.631Z,14.06
2022-09-22T01:41:58.331Z,14.05
2022-09-22T01:44:32.629Z,14.02
2022-09-22T01:47:08.342Z,14.01
2022-09-22T01:49:41.544Z,14.00
2022-09-22T01:52:16.647Z,14.00
2022-09-22T01:54:47.440Z,13.99
2022-09-22T01:57:22.096Z,13.96
2022-09-22T01:59:54.922Z,13.96
2022-09-22T02:02:29.876Z,13.93
2022-09-22T02:05:02.225Z,13.92
2022-09-22T02:07:33.970Z,13.91
2022-09-22T02:10:06.595Z,13.90
2022-09-22T02:12:35.788Z,13.87
2022-09-22T02:15:03.810Z,13.87
2022-09-22T02:17:35.366Z,13.85
2022-09-22T02:20:06.351Z,13.84
2022-09-22T02:22:34.263Z,13.83
2022-09-22T02:25:01.929Z,13.81
2022-09-22T02:27:36.757Z,13.81
2022-09-22T02:30:08.883Z,13.79
2022-09-22T02:32:41.854Z,13.78
2022-09-22T02:35:10.662Z,13.78
2022-09-22T02:37:42.953Z,13.67
2022-09-22T02:40:16.663Z,13.75
2022-09-22T02:42:49.818Z,13.74
2022-09-22T02:45:23.295Z,13.74
2022-09-22T02:47:57.202Z,13.72
2022-09-22T02:50:28.269Z,13.72
2022-09-22T02:53:02.667Z,13.70
2022-09-22T02:55:30.471Z,13.68
2022-09-22T02:57:58.366Z,13.66
2022-09-22T03:00:26.832Z,13.65
2022-09-22T03:02:56.018Z,13.65
2022-09-22T03:05:23.755Z,13.64
2022-09-22T03:07:51.459Z,13.64
2022-09-22T03:10:19.456Z,13.62
2022-09-22T03:13:14.464Z,13.61
2022-09-22T03:15:34.983Z,13.59
2022-09-22T03:18:04.202Z,13.58
2022-09-22T03:20:31.905Z,13.57
2022-09-22T03:22:59.611Z,13.47
2022-09-22T03:25:27.568Z,13.56
2022-09-22T03:27:55.270Z,13.53
2022-09-22T03:30:22.999Z,13.51
2022-09-22T03:32:50.863Z,13.49
2022-09-22T03:35:20.077Z,13.47
2022-09-22T03:37:48.037Z,13.47
2022-09-22T03:40:16.156Z,13.45
2022-09-22T03:42:43.936Z,13.45
2022-09-22T03:45:12.689Z,13.43
2022-09-22T03:47:40.429Z,13.42
2022-09-22T03:50:09.281Z,13.41
2022-09-22T03:52:40.060Z,13.39
2022-09-22T03:55:09.218Z,13.38
2022-09-22T03:57:37.009Z,13.38
2022-09-22T04:00:05.790Z,13.29
2022-09-22T04:02:33.582Z,13.34
2022-09-22T04:05:01.336Z,13.35
2022-09-22T04:07:29.030Z,13.33
2022-09-22T04:09:58.621Z,13.32
2022-09-22T04:12:26.298Z,13.30
2022-09-22T04:14:54.022Z,13.29
2022-09-22T04:17:21.873Z,13.27
2022-09-22T04:19:49.716Z,13.26
2022-09-22T04:22:17.457Z,13.26
2022-09-22T04:24:45.152Z,13.26
2022-09-22T04:27:21.530Z,13.24
2022-09-22T04:29:49.315Z,13.22
2022-09-22T04:32:17.646Z,13.24
2022-09-22T04:34:45.726Z,13.21
2022-09-22T04:37:13.690Z,13.19
2022-09-22T04:39:41.651Z,13.19
2022-09-22T04:42:09.945Z,13.17
2022-09-22T04:44:39.041Z,13.16
2022-09-22T04:47:07.003Z,13.14
2022-09-22T04:49:34.760Z,13.14
2022-09-22T04:52:02.904Z,13.13
2022-09-22T04:54:30.684Z,13.10
2022-09-22T04:56:58.422Z,13.10
2022-09-22T04:59:26.395Z,13.09
2022-09-22T05:01:55.435Z,13.09
2022-09-22T05:04:23.126Z,13.06
2022-09-22T05:06:50.879Z,13.06
2022-09-22T05:09:20.816Z,13.04
2022-09-22T05:11:49.591Z,13.03
2022-09-22T05:14:20.561Z,13.02
2022-09-22T05:16:50.685Z,13.01
2022-09-22T05:19:20.293Z,12.97
2022-09-22T05:21:48.043Z,12.89
2022-09-22T05:24:15.775Z,12.97
2022-09-22T05:26:43.486Z,12.95
2022-09-22T05:29:11.538Z,12.94
2022-09-22T05:31:39.309Z,12.95
2022-09-22T05:34:07.212Z,12.93
2022-09-22T05:36:36.274Z,12.92
2022-09-22T05:39:04.215Z,12.89
2022-09-22T05:41:31.991Z,12.87
2022-09-22T05:43:59.733Z,12.88
2022-09-22T05:46:27.522Z,12.85
2022-09-22T05:48:55.307Z,12.86
2022-09-22T05:51:23.042Z,12.85
2022-09-22T05:53:53.443Z,12.82
2022-09-22T05:56:21.191Z,12.81
2022-09-22T05:58:48.935Z,12.81
2022-09-22T06:01:16.922Z,12.80
2022-09-22T06:03:44.924Z,12.79
2022-09-22T06:06:12.664Z,12.69
2022-09-22T06:08:42.983Z,12.77
2022-09-22T06:11:15.464Z,12.76
2022-09-22T06:13:44.349Z,12.74
2022-09-22T06:16:14.705Z,12.71
2022-09-22T06:18:42.421Z,12.69
2022-09-22T06:21:10.405Z,12.70
2022-09-22T06:23:42.715Z,12.70
2022-09-22T06:26:11.684Z,12.69
2022-09-22T06:28:40.767Z,12.69
2022-09-22T06:31:08.463Z,12.69
2022-09-22T06:33:36.192Z,12.70
2022-09-22T06:36:04.218Z,12.71
2022-09-22T06:38:32.894Z,12.73
2022-09-22T06:41:01.784Z,12.64
2022-09-22T06:43:29.775Z,12.73
2022-09-22T06:46:02.807Z,12.65
2022-09-22T06:48:31.980Z,12.74
2022-09-22T06:51:00.092Z,12.75
2022-09-22T06:53:27.905Z,12.76
2022-09-22T06:55:55.704Z,12.76
2022-09-22T06:58:24.132Z,12.76
2022-09-22T07:00:53.811Z,12.75
2022-09-22T07:03:26.483Z,12.75
2022-09-22T07:05:55.614Z,12.75
2022-09-22T07:08:24.386Z,12.78
2022-09-22T07:10:56.934Z,12.81
2022-09-22T07:13:25.015Z,12.72
2022-09-22T07:15:53.010Z,12.83
2022-09-22T07:18:20.732Z,12.73
2022-09-22T07:20:50.046Z,12.84
2022-09-22T07:23:21.448Z,12.87
2022-09-22T07:25:56.462Z,12.84
2022-09-22T07:28:25.949Z,12.84
2022-09-22T07:30:53.649Z,12.85
2022-09-22T07:33:21.512Z,12.88
2022-09-22T07:35:50.747Z,12.88
2022-09-22T07:38:20.023Z,12.89
2022-09-22T07:40:53.456Z,12.88
2022-09-22T07:43:21.164Z,12.89
2022-09-22T07:45:55.880Z,12.89
2022-09-22T07:48:42.584Z,12.89
2022-09-22T07:51:16.753Z,12.93
2022-09-22T07:53:45.873Z,12.96
2022-09-22T07:56:15.523Z,12.95
2022-09-22T07:58:49.171Z,12.94
2022-09-22T08:01:17.869Z,12.95
2022-09-22T08:03:47.239Z,12.95
2022-09-22T08:06:19.547Z,12.97
2022-09-22T08:08:52.579Z,12.98
2022-09-22T08:11:22.073Z,12.90
2022-09-22T08:13:51.232Z,13.00
2022-09-22T08:16:19.453Z,13.00
2022-09-22T08:18:51.774Z,13.02
2022-09-22T08:21:20.868Z,13.03
2022-09-22T08:23:52.829Z,13.00
2022-09-22T08:26:22.086Z,12.97
2022-09-22T08:28:52.954Z,12.97
2022-09-22T08:31:21.728Z,12.96
2022-09-22T08:33:52.178Z,12.99
2022-09-22T08:36:22.116Z,13.02
2022-09-22T08:38:50.527Z,13.04
2022-09-22T08:41:27.442Z,13.09
2022-09-22T08:43:57.503Z,13.10
2022-09-22T08:46:29.553Z,13.11
2022-09-22T08:49:20.203Z,13.15
2022-09-22T08:51:55.376Z,13.18
2022-09-22T08:54:27.455Z,13.20
2022-09-22T08:57:21.475Z,13.19
2022-09-22T08:59:54.270Z,13.21
2022-09-22T09:02:38.542Z,13.22
2022-09-22T09:06:01.356Z,13.29
2022-09-22T09:08:50.581Z,13.41
2022-09-22T09:11:31.976Z,13.48
2022-09-22T09:14:13.680Z,13.44
2022-09-22T09:16:48.155Z,13.53
2022-09-22T09:19:20.089Z,13.52
2022-09-22T09:21:52.715Z,13.50
2022-09-22T09:27:24.222Z,13.47
2022-09-22T09:30:01.451Z,13.47
2022-09-22T09:32:37.723Z,13.47
2022-09-22T09:35:07.213Z,13.50
2022-09-22T09:37:35.556Z,13.53
2022-09-22T09:40:06.793Z,13.55
2022-09-22T09:42:36.477Z,13.57
2022-09-22T09:45:05.775Z,13.53
2022-09-22T09:47:48.392Z,13.62
2022-09-22T09:50:16.989Z,13.64
2022-09-22T09:52:46.249Z,13.66
2022-09-22T09:55:27.268Z,13.70
2022-09-22T09:58:07.759Z,13.74
2022-09-22T10:00:52.734Z,13.75
2022-09-22T10:03:26.590Z,13.82
2022-09-22T10:06:00.230Z,13.82
2022-09-22T10:08:32.098Z,13.88
2022-09-22T10:11:02.050Z,13.92
2022-09-22T10:13:32.441Z,13.96
2022-09-22T10:16:07.553Z,13.98
2022-09-22T10:18:37.710Z,14.02
2022-09-22T10:21:08.185Z,14.06
2022-09-22T10:23:36.637Z,14.11
2022-09-22T10:26:26.290Z,14.14
2022-09-22T10:29:19.154Z,14.20
2022-09-22T10:32:13.715Z,14.25
2022-09-22T10:34:47.278Z,14.28
2022-09-22T10:37:18.775Z,14.32
2022-09-22T10:39:49.856Z,14.34
2022-09-22T10:42:28.677Z,14.38
2022-09-22T10:45:02.752Z,14.41
2022-09-22T10:47:47.371Z,14.43
2022-09-22T10:50:31.723Z,14.48
2022-09-22T10:53:12.035Z,14.54
2022-09-22T10:55:50.112Z,14.51
2022-09-22T10:58:46.910Z,14.65
2022-09-22T11:01:31.205Z,14.69
2022-09-22T11:04:23.903Z,14.74
2022-09-22T11:07:23.798Z,14.76
2022-09-22T11:10:17.768Z,14.80
2022-09-22T11:12:54.573Z,14.83
2022-09-22T11:15:45.891Z,14.88
2022-09-22T11:18:37.620Z,14.92
2022-09-22T11:21:20.451Z,14.93
2022-09-22T11:24:14.729Z,14.97
2022-09-22T11:26:48.628Z,15.01
2022-09-22T11:29:37.461Z,15.01
2022-09-22T11:32:14.231Z,15.05
2022-09-22T11:35:00.946Z,15.08
2022-09-22T11:37:43.276Z,15.12
2022-09-22T11:40:37.031Z,15.14
2022-09-22T11:43:20.342Z,15.17
2022-09-22T11:45:54.232Z,15.21
2022-09-22T11:48:36.740Z,15.25
2022-09-22T11:51:18.874Z,15.30
2022-09-22T11:54:15.590Z,15.35
2022-09-22T11:56:46.091Z,15.39
2022-09-22T11:59:30.031Z,15.45
2022-09-22T12:02:04.604Z,15.49
2022-09-22T12:04:42.008Z,15.53
2022-09-22T12:07:17.389Z,15.59
2022-09-22T12:09:49.479Z,15.57
2022-09-22T12:12:20.635Z,15.70
2022-09-22T12:14:58.858Z,15.76
2022-09-22T12:17:32.450Z,15.76
2022-09-22T12:20:13.752Z,15.78
2022-09-22T12:23:09.628Z,15.85
2022-09-22T12:25:49.465Z,15.90
2022-09-22T12:28:20.750Z,15.95
2022-09-22T12:31:06.066Z,15.99
2022-09-22T12:33:37.086Z,15.99
2022-09-22T12:36:07.896Z,16.00
2022-09-22T12:38:35.936Z,15.98
2022-09-22T12:41:04.774Z,16.01
2022-09-22T12:43:34.459Z,16.05
2022-09-22T12:46:05.885Z,16.09
2022-09-22T12:48:36.035Z,16.14
2022-09-22T12:51:30.891Z,16.14
2022-09-22T12:54:41.405Z,16.14
2022-09-22T12:57:44.911Z,16.15
2022-09-22T13:00:32.288Z,16.18
2022-09-22T13:03:02.558Z,16.22
2022-09-22T13:05:46.837Z,16.27
2022-09-22T13:08:24.209Z,16.34
2022-09-22T13:11:00.710Z,16.39
2022-09-22T13:13:45.406Z,16.45
2022-09-22T13:16:34.496Z,16.51
2022-09-22T13:19:03.187Z,16.50
2022-09-22T13:21:32.691Z,16.57
2022-09-22T13:24:03.817Z,16.57
2022-09-22T13:26:33.508Z,16.58
2022-09-22T13:29:04.918Z,16.57
2022-09-22T13:31:45.357Z,16.57
2022-09-22T13:34:26.528Z,16.60
2022-09-22T13:36:58.250Z,16.63
2022-09-22T13:39:31.062Z,16.65
2022-09-22T13:42:05.254Z,16.66
2022-09-22T13:44:35.835Z,16.63
2022-09-22T13:47:07.865Z,16.71
2022-09-22T13:49:40.977Z,16.75
2022-09-22T13:52:13.927Z,16.78
2022-09-22T13:54:43.674Z,16.81
2022-09-22T13:57:21.217Z,16.85
2022-09-22T13:59:49.237Z,16.94
2022-09-22T14:02:22.106Z,16.97
2022-09-22T14:04:51.399Z,16.98
2022-09-22T14:07:22.143Z,17.00
2022-09-22T14:09:52.010Z,17.01
2022-09-22T14:12:20.916Z,17.03
2022-09-22T14:14:48.700Z,17.06
2022-09-22T14:17:20.841Z,17.08
2022-09-22T14:19:57.727Z,17.12
2022-09-22T14:22:27.615Z,17.12
2022-09-22T14:24:58.657Z,17.13
2022-09-22T14:27:32.483Z,17.13
2022-09-22T14:30:01.357Z,17.11
2022-09-22T14:32:36.224Z,17.12
2022-09-22T14:35:08.663Z,17.14
2022-09-22T14:37:39.488Z,17.13
2022-09-22T14:40:17.242Z,17.12
2022-09-22T14:42:57.354Z,17.15
2022-09-22T14:45:27.559Z,17.15
2022-09-22T14:48:18.237Z,17.17
2022-09-22T14:50:48.944Z,17.17
2022-09-22T14:53:22.953Z,17.17
2022-09-22T14:55:54.603Z,17.09
2022-09-22T14:58:24.994Z,17.14
2022-09-22T15:01:13.497Z,17.16
2022-09-22T15:03:43.566Z,17.18
2022-09-22T15:06:13.824Z,17.12
2022-09-22T15:08:44.485Z,17.20
2022-09-22T15:11:13.794Z,17.22
2022-09-22T15:13:43.471Z,17.22
2022-09-22T15:16:39.570Z,17.24
2022-09-22T15:19:10.942Z,17.35
2022-09-22T15:21:47.575Z,17.36
2022-09-22T15:24:16.025Z,17.37
2022-09-22T15:26:46.628Z,17.35
2022-09-22T15:29:17.290Z,17.34
2022-09-22T15:31:45.197Z,17.35
2022-09-22T15:34:16.485Z,17.33
2022-09-22T15:36:48.826Z,17.34
2022-09-22T15:39:21.526Z,17.33
2022-09-22T15:41:51.229Z,17.36
2022-09-22T15:44:19.446Z,17.37
2022-09-22T15:46:52.557Z,17.32
2022-09-22T15:49:24.939Z,17.40
2022-09-22T15:51:54.622Z,17.41
2022-09-22T15:54:23.560Z,17.41
2022-09-22T15:56:54.996Z,17.43
2022-09-22T15:59:28.174Z,17.43
2022-09-22T16:01:57.135Z,17.43
2022-09-22T16:04:25.172Z,17.42
2022-09-22T16:06:56.395Z,17.43
2022-09-22T16:09:24.117Z,17.43
2022-09-22T16:11:53.875Z,17.41
2022-09-22T16:14:22.834Z,17.39
2022-09-22T16:16:52.275Z,17.42
2022-09-22T16:19:20.390Z,17.42
2022-09-22T16:21:51.575Z,17.37
2022-09-22T16:24:19.447Z,17.46
2022-09-22T16:26:47.212Z,17.45
2022-09-22T16:29:16.676Z,17.46
2022-09-22T16:31:44.468Z,17.45
2022-09-22T16:34:12.503Z,17.38
2022-09-22T16:36:41.707Z,17.45
2022-09-22T16:39:09.856Z,17.43
2022-09-22T16:41:38.165Z,17.43
2022-09-22T16:44:06.315Z,17.42
2022-09-22T16:46:37.881Z,17.41
2022-09-22T16:49:10.393Z,17.40
2022-09-22T16:51:41.134Z,17.38
2022-09-22T16:54:13.359Z,17.38
2022-09-22T16:56:43.109Z,17.34
2022-09-22T16:59:13.303Z,17.34
2022-09-22T17:01:43.790Z,17.34
2022-09-22T17:04:13.116Z,17.33
2022-09-22T17:06:41.766Z,17.30
2022-09-22T17:09:10.889Z,17.31
2022-09-22T17:11:40.218Z,17.31
2022-09-22T17:14:12.519Z,17.30
2022-09-22T17:16:43.606Z,17.29
2022-09-22T17:19:18.382Z,17.27
2022-09-22T17:21:47.303Z,17.26
2022-09-22T17:24:16.433Z,17.25
2022-09-22T17:26:47.543Z,17.24
2022-09-22T17:29:16.943Z,17.21
2022-09-22T17:31:47.309Z,17.22
2022-09-22T17:34:15.392Z,17.21
2022-09-22T17:36:43.130Z,17.19
2022-09-22T17:39:11.696Z,17.19
2022-09-22T17:41:45.398Z,17.18
2022-09-22T17:44:21.379Z,17.08
2022-09-22T17:47:09.354Z,17.17
2022-09-22T17:49:55.167Z,17.16
2022-09-22T17:52:40.518Z,17.15
2022-09-22T17:55:14.947Z,17.14
2022-09-22T17:57:43.939Z,17.14
2022-09-22T18:00:13.980Z,17.14
2022-09-22T18:02:43.926Z,17.13
2022-09-22T18:05:13.983Z,17.12
2022-09-22T18:07:42.303Z,17.12
2022-09-22T18:10:12.120Z,17.12
2022-09-22T18:12:41.255Z,17.10
2022-09-22T18:15:12.889Z,17.09
2022-09-22T18:17:42.324Z,17.09
2022-09-22T18:20:13.290Z,17.07
2022-09-22T18:22:41.898Z,17.06
2022-09-22T18:25:11.644Z,17.05
2022-09-22T18:27:40.031Z,16.97
2022-09-22T18:30:08.739Z,16.96
2022-09-22T18:32:36.443Z,17.03
2022-09-22T18:35:05.616Z,17.03
2022-09-22T18:37:34.749Z,17.01
2022-09-22T18:40:03.256Z,16.88
2022-09-22T18:42:32.424Z,16.98
2022-09-22T18:45:00.154Z,16.94
2022-09-22T18:47:27.883Z,16.95
2022-09-22T18:49:56.910Z,16.94
2022-09-22T18:52:25.561Z,16.91
2022-09-22T18:54:54.940Z,16.82
2022-09-22T18:57:24.613Z,16.88
2022-09-22T18:59:52.511Z,16.79
2022-09-22T19:02:22.530Z,16.84
2022-09-22T19:04:52.090Z,16.75
2022-09-22T19:07:41.565Z,16.81
2022-09-22T19:10:13.559Z,16.78
2022-09-22T19:12:42.836Z,16.76
2022-09-22T19:15:14.993Z,16.75
2022-09-22T19:17:44.160Z,16.74
2022-09-22T19:20:14.803Z,16.72
2022-09-22T19:22:42.795Z,16.70
2022-09-22T19:25:12.754Z,16.69
2022-09-22T19:27:40.808Z,16.68
2022-09-22T19:30:09.726Z,16.66
2022-09-22T19:32:37.994Z,16.65
2022-09-22T19:35:07.371Z,16.63
2022-09-22T19:37:35.171Z,16.61
2022-09-22T19:40:03.032Z,16.60
2022-09-22T19:42:32.335Z,16.57
2022-09-22T19:45:00.178Z,16.57
2022-09-22T19:47:27.923Z,16.56
2022-09-22T19:49:56.400Z,16.54
2022-09-22T19:52:24.296Z,16.54
2022-09-22T19:54:52.019Z,16.54
2022-09-22T19:57:19.740Z,16.52
2022-09-22T19:59:48.796Z,16.51
2022-09-22T20:02:16.636Z,16.51
2022-09-22T20:04:44.399Z,16.49
2022-09-22T20:07:12.145Z,16.48
2022-09-22T20:09:40.247Z,16.40
2022-09-22T20:12:08.291Z,16.46
2022-09-22T20:14:36.179Z,16.45
2022-09-22T20:17:08.226Z,16.36
2022-09-22T20:19:38.331Z,16.43
2022-09-22T20:22:22.782Z,16.34
2022-09-22T20:24:54.130Z,16.41
2022-09-22T20:27:26.517Z,16.39
2022-09-22T20:29:57.327Z,16.38
2022-09-22T20:32:28.191Z,16.37
2022-09-22T20:34:56.475Z,16.35
2022-09-22T20:37:25.053Z,16.34
2022-09-22T20:39:52.901Z,16.32
2022-09-22T20:42:20.766Z,16.31
2022-09-22T20:44:49.214Z,16.28
2022-09-22T20:47:18.711Z,16.28
2022-09-22T20:49:51.574Z,16.25
2022-09-22T20:52:21.780Z,16.25
2022-09-22T20:54:49.769Z,16.23
2022-09-22T20:57:18.056Z,16.22
2022-09-22T20:59:46.633Z,16.20
2022-09-22T21:02:15.297Z,16.14
2022-09-22T21:04:43.796Z,16.18
2022-09-22T21:07:13.163Z,16.17
2022-09-22T21:09:58.826Z,16.14
2022-09-22T21:12:31.104Z,16.15
2022-09-22T21:14:59.541Z,16.14
2022-09-22T21:17:30.108Z,16.12
2022-09-22T21:19:58.302Z,16.11
2022-09-22T21:22:28.241Z,16.09
2022-09-22T21:24:56.368Z,16.08
2022-09-22T21:27:24.694Z,16.07
2022-09-22T21:29:53.230Z,16.06
2022-09-22T21:32:21.047Z,16.03
2022-09-22T21:34:48.847Z,16.04
2022-09-22T21:37:16.991Z,16.03
2022-09-22T21:39:46.342Z,16.02
2022-09-22T21:42:14.011Z,16.00
2022-09-22T21:44:42.057Z,15.98
2022-09-22T21:47:10.616Z,15.94
2022-09-22T21:49:38.492Z,15.96
2022-09-22T21:52:06.521Z,15.94
2022-09-22T21:54:34.476Z,15.93
2022-09-22T21:57:03.614Z,15.92
2022-09-22T21:59:31.324Z,15.92
2022-09-22T22:01:59.395Z,15.82
2022-09-22T22:04:27.782Z,15.89
2022-09-22T22:06:56.142Z,15.87
2022-09-22T22:09:25.687Z,15.86
2022-09-22T22:11:56.704Z,15.84
2022-09-22T22:14:32.789Z,15.76
2022-09-22T22:17:02.116Z,15.82
2022-09-22T22:19:30.114Z,15.79
2022-09-22T22:21:57.892Z,15.72
2022-09-22T22:24:39.428Z,15.78
2022-09-22T22:27:10.184Z,15.76
2022-09-22T22:29:39.715Z,15.75
2022-09-22T22:32:09.222Z,15.75
2022-09-22T22:34:37.296Z,15.74
2022-09-22T22:37:08.973Z,15.73
2022-09-22T22:39:36.684Z,15.72
2022-09-22T22:42:04.793Z,15.70
2022-09-22T22:44:32.680Z,15.68
2022-09-22T22:47:01.848Z,15.69
2022-09-22T22:49:29.582Z,15.66
2022-09-22T22:51:57.340Z,15.65
2022-09-22T22:54:25.203Z,15.64
2022-09-22T22:56:52.905Z,15.62
2022-09-22T22:59:20.822Z,15.60
2022-09-22T23:01:48.553Z,15.60
2022-09-22T23:04:17.700Z,15.59
2022-09-22T23:06:47.327Z,15.59
2022-09-22T23:09:16.643Z,15.57
2022-09-22T23:11:45.881Z,15.53
2022-09-22T23:14:16.462Z,15.55
2022-09-22T23:16:46.631Z,15.46
2022-09-22T23:19:17.980Z,15.54
2022-09-22T23:21:46.846Z,15.52
2022-09-22T23:24:16.369Z,15.52
2022-09-22T23:26:45.339Z,15.50
2022-09-22T23:29:13.307Z,15.50
2022-09-22T23:31:41.001Z,15.48
2022-09-22T23:34:08.719Z,15.47
2022-09-22T23:36:39.518Z,15.43
2022-09-22T23:39:07.606Z,15.43
2022-09-22T23:41:37.690Z,15.41
2022-09-22T23:44:06.704Z,15.42
2022-09-22T23:46:34.951Z,15.42
2022-09-22T23:49:02.689Z,15.32
2022-09-22T23:51:30.650Z,15.39
2022-09-22T23:54:00.179Z,15.38
2022-09-22T23:56:28.030Z,15.37
2022-09-22T23:58:55.908Z,15.36
